createdAt,value
2018-01-25T00:01:55.121Z,5.93
2018-01-25T00:04:24.422Z,6.90
2018-01-25T00:06:54.469Z,6.60
2018-01-25T00:09:22.826Z,4.85
2018-01-25T00:11:51.951Z,6.22
2018-01-25T00:14:20.335Z,6.20
2018-01-25T00:16:48.695Z,5.43
2018-01-25T00:19:17.088Z,5.75
2018-01-25T00:21:45.453Z,6.55
2018-01-25T00:24:14.053Z,5.90
2018-01-25T00:26:42.409Z,5.22
2018-01-25T00:29:10.773Z,5.65
2018-01-25T00:31:39.920Z,5.85
2018-01-25T00:34:08.277Z,5.60
2018-01-25T00:36:36.932Z,6.57
2018-01-25T00:39:06.063Z,5.05
2018-01-25T00:41:34.496Z,6.80
2018-01-25T00:44:03.613Z,5.55
2018-01-25T00:46:32.588Z,5.15
2018-01-25T00:49:01.744Z,5.68
2018-01-25T00:51:30.189Z,5.68
2018-01-25T00:53:58.590Z,7.30
2018-01-25T00:56:26.965Z,6.72
2018-01-25T00:58:55.537Z,5.45
2018-01-25T01:01:23.905Z,6.95
2018-01-25T01:03:53.993Z,6.15
2018-01-25T01:06:24.111Z,5.72
2018-01-25T01:08:52.791Z,5.53
2018-01-25T01:11:21.297Z,5.85
2018-01-25T01:13:50.813Z,6.00
2018-01-25T01:16:19.508Z,6.28
2018-01-25T01:18:47.874Z,6.32
2018-01-25T01:21:16.268Z,5.25
2018-01-25T01:23:44.652Z,6.20
2018-01-25T01:26:13.162Z,6.22
2018-01-25T01:28:41.644Z,5.97
2018-01-25T01:31:10.169Z,6.20
2018-01-25T01:33:38.983Z,5.72
2018-01-25T01:36:07.349Z,6.40
2018-01-25T01:38:35.713Z,6.32
2018-01-25T01:41:04.101Z,5.53
2018-01-25T01:43:32.472Z,5.62
2018-01-25T01:46:00.849Z,5.55
2018-01-25T01:48:29.240Z,5.87
2018-01-25T01:50:57.829Z,5.72
2018-01-25T01:53:26.189Z,6.30
2018-01-25T01:55:55.416Z,5.18
2018-01-25T01:58:24.717Z,4.72
2018-01-25T02:00:53.078Z,4.82
2018-01-25T02:03:21.480Z,3.80
2018-01-25T02:05:49.838Z,4.70
2018-01-25T02:08:18.268Z,4.20
2018-01-25T02:10:46.716Z,4.43
2018-01-25T02:13:15.081Z,5.00
2018-01-25T02:15:43.452Z,5.03
2018-01-25T02:18:11.813Z,4.50
2018-01-25T02:20:40.200Z,4.62
2018-01-25T02:23:08.561Z,4.28
2018-01-25T02:25:37.885Z,4.95
2018-01-25T02:28:06.244Z,3.62
2018-01-25T02:30:35.393Z,4.35
2018-01-25T02:33:03.781Z,4.32
2018-01-25T02:35:32.140Z,3.90
2018-01-25T02:38:00.516Z,3.83
2018-01-25T02:40:28.892Z,4.60
2018-01-25T02:42:57.457Z,3.53
2018-01-25T02:45:25.813Z,4.75
2018-01-25T02:47:54.938Z,3.90
2018-01-25T02:50:23.313Z,4.53
2018-01-25T02:52:51.693Z,4.20
2018-01-25T02:55:20.085Z,3.78
2018-01-25T02:57:48.444Z,3.87
2018-01-25T03:00:16.852Z,3.47
2018-01-25T03:02:45.209Z,4.20
2018-01-25T03:05:13.589Z,3.85
2018-01-25T03:07:41.965Z,3.35
2018-01-25T03:10:11.104Z,3.80
2018-01-25T03:12:39.485Z,2.83
2018-01-25T03:15:07.852Z,4.15
2018-01-25T03:17:36.266Z,3.58
2018-01-25T03:20:05.420Z,4.28
2018-01-25T03:22:33.801Z,5.43
2018-01-25T03:25:02.247Z,3.28
2018-01-25T03:27:31.339Z,4.28
2018-01-25T03:29:59.729Z,3.53
2018-01-25T03:32:28.090Z,5.12
2018-01-25T03:34:56.453Z,4.35
2018-01-25T03:37:25.633Z,4.57
2018-01-25T03:39:54.755Z,3.97
2018-01-25T03:42:23.139Z,4.28
2018-01-25T03:44:51.489Z,4.10
2018-01-25T03:47:20.638Z,4.03
2018-01-25T03:49:48.997Z,4.60
2018-01-25T03:52:17.367Z,4.87
2018-01-25T03:54:45.759Z,4.37
2018-01-25T03:57:14.116Z,5.25
2018-01-25T03:59:42.504Z,4.40
2018-01-25T04:02:10.860Z,4.80
2018-01-25T04:04:40.297Z,4.50
2018-01-25T04:07:08.657Z,4.43
2018-01-25T04:09:37.030Z,5.15
2018-01-25T04:12:05.412Z,5.65
2018-01-25T04:14:33.777Z,5.18
2018-01-25T04:17:02.921Z,5.70
2018-01-25T04:19:31.285Z,5.03
2018-01-25T04:21:59.737Z,4.97
2018-01-25T04:24:28.103Z,5.30
2018-01-25T04:26:57.235Z,4.72
2018-01-25T04:29:25.627Z,5.57
2018-01-25T04:31:54.016Z,4.75
2018-01-25T04:34:22.397Z,5.22
2018-01-25T04:36:50.754Z,5.07
2018-01-25T04:39:19.339Z,4.90
2018-01-25T04:41:47.720Z,5.68
2018-01-25T04:44:16.087Z,5.80
2018-01-25T04:46:44.471Z,4.90
2018-01-25T04:49:12.819Z,5.90
2018-01-25T04:51:41.965Z,7.68
2018-01-25T04:54:10.329Z,7.43
2018-01-25T04:56:38.740Z,5.20
2018-01-25T04:59:07.105Z,5.30
2018-01-25T05:01:35.464Z,5.68
2018-01-25T05:04:03.917Z,5.65
2018-01-25T05:06:32.278Z,7.55
2018-01-25T05:09:01.440Z,6.37
2018-01-25T05:11:29.800Z,7.62
2018-01-25T05:13:59.406Z,6.70
2018-01-25T05:16:27.773Z,8.00
2018-01-25T05:18:56.164Z,6.20
2018-01-25T05:21:24.565Z,7.25
2018-01-25T05:23:53.740Z,6.53
2018-01-25T05:26:22.128Z,9.23
2018-01-25T05:28:50.480Z,7.85
2018-01-25T05:31:19.075Z,9.80
2018-01-25T05:33:47.453Z,9.15
2018-01-25T05:36:15.832Z,10.75
2018-01-25T05:38:44.229Z,8.23
2018-01-25T05:41:12.620Z,8.77
2018-01-25T05:43:41.401Z,9.30
2018-01-25T05:46:09.764Z,11.12
2018-01-25T05:48:38.168Z,10.68
2018-01-25T05:51:06.551Z,10.32
2018-01-25T05:53:34.913Z,9.23
2018-01-25T05:56:03.469Z,10.40
2018-01-25T05:58:31.832Z,8.90
2018-01-25T06:01:00.196Z,9.35
2018-01-25T06:03:28.581Z,8.27
2018-01-25T06:05:57.928Z,8.30
2018-01-25T06:08:26.340Z,7.35
2018-01-25T06:10:55.658Z,4.72
2018-01-25T06:13:24.033Z,3.75
2018-01-25T06:15:52.419Z,4.35
2018-01-25T06:18:20.819Z,4.43
2018-01-25T06:20:49.220Z,4.55
2018-01-25T06:23:17.587Z,4.75
2018-01-25T06:25:45.959Z,6.95
2018-01-25T06:28:14.343Z,7.47
2018-01-25T06:30:42.704Z,6.60
2018-01-25T06:33:11.133Z,6.55
2018-01-25T06:35:39.496Z,6.15
2018-01-25T06:38:07.864Z,6.80
2018-01-25T06:40:36.250Z,5.90
2018-01-25T06:43:04.612Z,6.25
2018-01-25T06:45:33.272Z,5.72
2018-01-25T06:48:01.633Z,5.22
2018-01-25T06:50:29.992Z,5.60
2018-01-25T06:52:58.378Z,5.40
2018-01-25T06:55:27.512Z,5.20
2018-01-25T06:57:55.907Z,5.93
2018-01-25T07:00:24.261Z,5.45
2018-01-25T07:02:52.620Z,6.45
2018-01-25T07:05:21.760Z,5.22
2018-01-25T07:07:50.232Z,5.55
2018-01-25T07:10:18.897Z,10.00
2018-01-25T07:12:47.295Z,12.50
2018-01-25T07:15:15.656Z,7.32
2018-01-25T07:17:44.033Z,5.43
2018-01-25T07:20:12.388Z,4.93
2018-01-25T07:22:41.680Z,5.22
2018-01-25T07:25:10.819Z,6.00
2018-01-25T07:27:39.357Z,5.68
2018-01-25T07:30:08.508Z,5.95
2018-01-25T07:32:36.864Z,5.57
2018-01-25T07:35:05.394Z,5.22
2018-01-25T07:37:33.774Z,5.00
2018-01-25T07:40:02.967Z,5.07
2018-01-25T07:42:36.462Z,5.80
2018-01-25T07:45:04.824Z,5.90
2018-01-25T07:47:33.384Z,5.43
2018-01-25T07:50:01.737Z,5.90
2018-01-25T07:52:30.860Z,5.95
2018-01-25T07:54:59.244Z,7.90
2018-01-25T07:57:33.051Z,6.30
2018-01-25T08:00:01.467Z,6.18
2018-01-25T08:02:33.755Z,6.55
2018-01-25T08:05:03.299Z,6.45
2018-01-25T08:07:31.691Z,5.65
2018-01-25T08:10:00.056Z,6.35
2018-01-25T08:12:28.446Z,7.68
2018-01-25T08:14:56.812Z,5.82
2018-01-25T08:17:25.204Z,7.80
2018-01-25T08:19:53.610Z,6.75
2018-01-25T08:22:22.357Z,5.70
2018-01-25T08:24:50.742Z,5.53
2018-01-25T08:27:19.189Z,5.57
2018-01-25T08:29:48.338Z,4.05
2018-01-25T08:32:16.722Z,4.32
2018-01-25T08:34:45.142Z,4.80
2018-01-25T08:37:13.518Z,3.83
2018-01-25T08:39:41.898Z,3.37
2018-01-25T08:42:11.058Z,3.57
2018-01-25T08:44:39.430Z,3.83
2018-01-25T08:47:07.910Z,3.97
2018-01-25T08:49:36.465Z,3.67
2018-01-25T08:52:04.881Z,3.50
2018-01-25T08:54:33.289Z,3.07
2018-01-25T08:57:02.421Z,3.40
2018-01-25T08:59:31.014Z,3.00
2018-01-25T09:01:59.386Z,2.90
2018-01-25T09:04:27.769Z,3.20
2018-01-25T09:06:56.180Z,3.33
2018-01-25T09:09:25.308Z,3.60
2018-01-25T09:11:54.501Z,3.53
2018-01-25T09:14:23.638Z,2.90
2018-01-25T09:16:52.003Z,3.27
2018-01-25T09:19:20.393Z,3.30
2018-01-25T09:21:48.758Z,3.23
2018-01-25T09:24:17.206Z,3.43
2018-01-25T09:26:46.333Z,2.90
2018-01-25T09:29:14.705Z,3.17
2018-01-25T09:31:43.098Z,3.77
2018-01-25T09:34:11.465Z,3.03
2018-01-25T09:36:39.879Z,3.70
2018-01-25T09:39:08.245Z,2.90
2018-01-25T09:41:36.617Z,3.70
2018-01-25T09:44:05.009Z,3.20
2018-01-25T09:46:33.377Z,3.90
2018-01-25T09:49:02.061Z,4.33
2018-01-25T09:51:30.424Z,3.57
2018-01-25T09:53:58.787Z,3.20
2018-01-25T09:56:27.180Z,3.93
2018-01-25T09:58:55.549Z,3.10
2018-01-25T10:01:23.994Z,3.20
2018-01-25T10:03:52.365Z,3.80
2018-01-25T10:06:20.728Z,3.40
2018-01-25T10:08:49.109Z,3.40
2018-01-25T10:11:18.275Z,9.83
2018-01-25T10:13:46.862Z,4.30
2018-01-25T10:16:15.269Z,3.20
2018-01-25T10:18:43.648Z,3.40
2018-01-25T10:21:12.041Z,3.13
2018-01-25T10:23:40.421Z,2.73
2018-01-25T10:26:08.853Z,2.93
2018-01-25T10:28:37.226Z,3.03
2018-01-25T10:31:05.593Z,2.50
2018-01-25T10:33:33.994Z,2.50
2018-01-25T10:36:02.361Z,2.50
2018-01-25T10:38:31.053Z,2.37
2018-01-25T10:40:59.425Z,2.70
2018-01-25T10:43:27.795Z,2.00
2018-01-25T10:45:56.194Z,2.40
2018-01-25T10:48:24.561Z,2.33
2018-01-25T10:50:52.922Z,2.30
2018-01-25T10:53:21.314Z,2.23
2018-01-25T10:55:49.679Z,2.37
2018-01-25T10:58:18.063Z,2.50
2018-01-25T11:03:51.373Z,3.80
2018-01-25T11:06:19.969Z,2.53
2018-01-25T11:08:48.345Z,2.40
2018-01-25T11:11:16.721Z,2.53
2018-01-25T11:13:45.109Z,2.20
2018-01-25T11:16:13.476Z,1.97
2018-01-25T11:18:42.073Z,2.50
2018-01-25T11:21:10.439Z,2.87
2018-01-25T11:23:38.812Z,4.10
2018-01-25T11:26:07.201Z,5.10
2018-01-25T11:28:35.569Z,5.70
2018-01-25T11:31:04.161Z,3.00
2018-01-25T11:33:32.539Z,2.23
2018-01-25T11:36:00.915Z,1.60
2018-01-25T11:38:29.311Z,1.90
2018-01-25T11:40:57.713Z,1.40
2018-01-25T11:43:26.268Z,2.20
2018-01-25T11:45:54.640Z,3.80
2018-01-25T11:48:23.010Z,1.20
2018-01-25T11:50:51.417Z,1.60
2018-01-25T11:53:19.776Z,1.43
2018-01-25T11:55:48.205Z,1.40
2018-01-25T11:58:16.573Z,1.47
2018-01-25T12:00:44.938Z,1.93
2018-01-25T12:03:13.342Z,1.43
2018-01-25T12:05:41.709Z,1.40
2018-01-25T12:08:10.462Z,1.50
2018-01-25T12:10:38.826Z,1.70
2018-01-25T12:13:07.209Z,1.33
2018-01-25T12:15:35.612Z,1.30
2018-01-25T12:18:03.984Z,1.43
2018-01-25T12:20:32.662Z,1.77
2018-01-25T12:23:01.036Z,2.27
2018-01-25T12:25:29.524Z,1.30
2018-01-25T12:27:58.021Z,1.30
2018-01-25T12:30:26.394Z,1.60
2018-01-25T12:32:55.058Z,2.03
2018-01-25T12:35:23.421Z,2.00
2018-01-25T12:37:51.795Z,2.07
2018-01-25T12:40:20.205Z,1.67
2018-01-25T12:42:48.566Z,2.03
2018-01-25T12:45:16.954Z,1.80
2018-01-25T12:47:45.336Z,1.30
2018-01-25T12:50:13.762Z,1.77
2018-01-25T12:52:42.909Z,1.40
2018-01-25T12:55:11.308Z,1.17
2018-01-25T12:57:39.684Z,1.90
2018-01-25T13:00:08.377Z,1.30
2018-01-25T13:02:36.749Z,2.50
2018-01-25T13:05:05.183Z,1.63
2018-01-25T13:07:34.318Z,1.40
2018-01-25T13:10:02.693Z,1.20
2018-01-25T13:12:31.084Z,1.43
2018-01-25T13:14:59.453Z,1.47
2018-01-25T13:17:28.181Z,1.43
2018-01-25T13:19:57.329Z,1.90
2018-01-25T13:22:25.715Z,1.40
2018-01-25T13:24:54.157Z,1.53
2018-01-25T13:27:23.293Z,1.33
2018-01-25T13:29:51.690Z,2.03
2018-01-25T13:32:20.067Z,1.47
2018-01-25T13:34:48.471Z,1.33
2018-01-25T13:37:17.606Z,1.80
2018-01-25T13:39:45.973Z,1.87
2018-01-25T13:42:14.479Z,2.10
2018-01-25T13:44:42.858Z,1.97
2018-01-25T13:47:11.490Z,1.30
2018-01-25T13:49:40.640Z,2.00
2018-01-25T13:52:09.958Z,3.60
2018-01-25T13:54:38.413Z,2.27
2018-01-25T13:57:06.769Z,2.27
2018-01-25T13:59:35.166Z,15.47
2018-01-25T14:02:03.549Z,30.47
2018-01-25T14:04:31.992Z,9.33
2018-01-25T14:07:00.397Z,1.85
2018-01-25T14:09:28.817Z,2.73
2018-01-25T14:11:57.199Z,1.75
2018-01-25T14:14:25.638Z,2.25
2018-01-25T14:16:54.013Z,1.75
2018-01-25T14:19:22.499Z,2.40
2018-01-25T14:21:50.900Z,2.35
2018-01-25T14:24:19.336Z,1.90
2018-01-25T14:26:48.659Z,2.10
2018-01-25T14:29:17.037Z,2.12
2018-01-25T14:31:45.522Z,1.83
2018-01-25T14:34:13.921Z,1.70
2018-01-25T14:36:42.322Z,1.77
2018-01-25T14:39:10.709Z,1.73
2018-01-25T14:41:39.894Z,1.50
2018-01-25T14:44:09.361Z,2.80
2018-01-25T14:46:37.741Z,1.67
2018-01-25T14:49:06.110Z,1.85
2018-01-25T14:51:34.502Z,1.75
2018-01-25T14:54:02.877Z,2.12
2018-01-25T14:56:31.272Z,2.83
2018-01-25T14:58:59.754Z,2.12
2018-01-25T15:01:28.214Z,1.85
2018-01-25T15:03:56.577Z,1.98
2018-01-25T15:06:24.946Z,1.77
2018-01-25T15:08:53.381Z,3.28
2018-01-25T15:11:21.750Z,3.72
2018-01-25T15:13:50.141Z,5.75
2018-01-25T15:16:18.513Z,6.75
2018-01-25T15:18:47.281Z,5.12
2018-01-25T15:21:15.731Z,4.20
2018-01-25T15:23:44.214Z,3.10
2018-01-25T15:26:12.629Z,3.83
2018-01-25T15:28:41.162Z,3.17
2018-01-25T15:31:09.580Z,3.25
2018-01-25T15:33:38.193Z,4.10
2018-01-25T15:36:06.883Z,6.80
2018-01-25T15:38:35.507Z,5.25
2018-01-25T15:41:04.166Z,5.78
2018-01-25T15:43:34.432Z,4.28
2018-01-25T15:46:03.629Z,4.60
2018-01-25T15:48:32.769Z,5.12
2018-01-25T15:51:01.699Z,4.62
2018-01-25T15:53:30.919Z,3.50
2018-01-25T15:56:00.497Z,3.50
2018-01-25T15:58:31.027Z,3.72
2018-01-25T16:00:59.866Z,3.33
2018-01-25T16:03:29.102Z,3.33
2018-01-25T16:05:58.360Z,3.50
2018-01-25T16:08:27.132Z,3.85
2018-01-25T16:10:55.898Z,4.85
2018-01-25T16:13:25.147Z,3.95
2018-01-25T16:15:54.479Z,4.12
2018-01-25T16:18:24.102Z,3.40
2018-01-25T16:20:52.900Z,3.10
2018-01-25T16:23:21.695Z,3.05
2018-01-25T16:25:50.176Z,4.03
2018-01-25T16:28:29.798Z,4.80
2018-01-25T16:30:58.240Z,4.10
2018-01-25T16:33:27.417Z,4.32
2018-01-25T16:35:55.789Z,7.85
2018-01-25T16:38:24.457Z,6.70
2018-01-25T16:40:52.894Z,6.28
2018-01-25T16:43:25.575Z,5.47
2018-01-25T16:45:55.550Z,18.15
2018-01-25T16:48:23.993Z,6.22
2018-01-25T16:50:54.333Z,5.00
2018-01-25T16:53:23.054Z,5.43
2018-01-25T16:55:52.663Z,4.85
2018-01-25T16:58:22.434Z,4.68
2018-01-25T17:00:50.818Z,5.20
2018-01-25T17:03:20.017Z,5.18
2018-01-25T17:05:48.659Z,6.53
2018-01-25T17:08:18.328Z,4.80
2018-01-25T17:10:47.974Z,6.35
2018-01-25T17:13:18.098Z,6.37
2018-01-25T17:15:47.335Z,7.10
2018-01-25T17:18:16.771Z,8.07
2018-01-25T17:20:45.254Z,6.10
2018-01-25T17:23:14.755Z,6.90
2018-01-25T17:25:44.265Z,7.62
2018-01-25T17:28:12.685Z,6.75
2018-01-25T17:30:41.693Z,5.37
2018-01-25T17:33:10.283Z,7.12
2018-01-25T17:35:39.061Z,6.62
2018-01-25T17:38:07.492Z,6.75
2018-01-25T17:40:36.096Z,8.55
2018-01-25T17:43:04.618Z,7.60
2018-01-25T17:45:33.058Z,7.10
2018-01-25T17:48:02.258Z,8.27
2018-01-25T17:50:30.636Z,11.32
2018-01-25T17:52:59.650Z,9.68
2018-01-25T17:55:28.301Z,13.02
2018-01-25T17:57:58.292Z,9.88
2018-01-25T18:00:27.537Z,7.60
2018-01-25T18:02:55.913Z,6.43
2018-01-25T18:05:24.613Z,6.22
2018-01-25T18:07:54.667Z,9.35
2018-01-25T18:10:23.935Z,10.10
2018-01-25T18:12:52.735Z,11.50
2018-01-25T18:15:21.665Z,9.45
2018-01-25T18:17:50.790Z,6.70
2018-01-25T18:20:19.736Z,44.42
2018-01-25T18:22:50.677Z,18.15
2018-01-25T18:25:21.591Z,7.10
2018-01-25T18:27:50.834Z,6.72
2018-01-25T18:30:23.739Z,5.78
2018-01-25T18:32:53.151Z,6.68
2018-01-25T18:35:22.236Z,6.65
2018-01-25T18:37:52.757Z,6.10
2018-01-25T18:40:22.663Z,5.47
2018-01-25T18:42:51.765Z,4.95
2018-01-25T18:45:20.713Z,5.28
2018-01-25T18:47:49.949Z,5.57
2018-01-25T18:50:19.137Z,4.50
2018-01-25T18:52:48.086Z,5.12
2018-01-25T18:55:17.187Z,5.03
2018-01-25T18:57:47.253Z,6.40
2018-01-25T19:00:16.469Z,4.12
2018-01-25T19:02:45.589Z,4.78
2018-01-25T19:05:14.649Z,4.03
2018-01-25T19:07:43.833Z,4.05
2018-01-25T19:10:13.038Z,5.35
2018-01-25T19:12:43.231Z,4.30
2018-01-25T19:15:13.157Z,4.72
2018-01-25T19:17:43.538Z,4.55
2018-01-25T19:20:13.366Z,4.82
2018-01-25T19:22:42.227Z,6.75
2018-01-25T19:25:11.166Z,6.93
2018-01-25T19:27:40.976Z,9.13
2018-01-25T19:30:10.656Z,9.55
2018-01-25T19:32:39.903Z,34.38
2018-01-25T19:35:08.934Z,12.52
2018-01-25T19:37:37.848Z,8.07
2018-01-25T19:40:07.021Z,6.05
2018-01-25T19:42:36.833Z,5.07
2018-01-25T19:45:05.943Z,7.55
2018-01-25T19:47:35.090Z,10.35
2018-01-25T19:50:04.505Z,9.80
2018-01-25T19:52:35.330Z,9.27
2018-01-25T19:55:03.953Z,8.93
2018-01-25T19:57:32.754Z,6.93
2018-01-25T20:00:02.049Z,6.65
2018-01-25T20:02:31.017Z,5.78
2018-01-25T20:05:00.877Z,6.35
2018-01-25T20:07:30.608Z,6.10
2018-01-25T20:10:00.585Z,5.78
2018-01-25T20:12:30.191Z,8.57
2018-01-25T20:14:58.977Z,13.68
2018-01-25T20:17:28.518Z,10.85
2018-01-25T20:19:56.968Z,8.18
2018-01-25T20:22:27.688Z,5.72
2018-01-25T20:24:56.347Z,8.30
2018-01-25T20:27:25.476Z,7.65
2018-01-25T20:29:54.485Z,7.45
2018-01-25T20:32:23.887Z,7.90
2018-01-25T20:34:53.771Z,12.37
2018-01-25T20:37:22.577Z,7.60
2018-01-25T20:39:51.552Z,8.68
2018-01-25T20:42:21.068Z,12.52
2018-01-25T20:44:50.207Z,7.10
2018-01-25T20:47:19.025Z,7.35
2018-01-25T20:49:47.816Z,7.20
2018-01-25T20:52:16.345Z,7.90
2018-01-25T20:54:44.869Z,6.90
2018-01-25T20:57:14.050Z,8.60
2018-01-25T20:59:43.237Z,8.43
2018-01-25T21:02:13.012Z,8.38
2018-01-25T21:04:42.136Z,8.45
2018-01-25T21:07:12.029Z,9.00
2018-01-25T21:09:42.096Z,9.70
2018-01-25T21:12:11.433Z,7.20
2018-01-25T21:14:41.141Z,6.95
2018-01-25T21:17:10.354Z,8.60
2018-01-25T21:19:39.146Z,7.15
2018-01-25T21:22:07.518Z,7.30
2018-01-25T21:24:35.937Z,6.25
2018-01-25T21:27:04.435Z,7.70
2018-01-25T21:29:33.576Z,6.97
2018-01-25T21:32:03.388Z,7.75
2018-01-25T21:34:32.817Z,8.30
2018-01-25T21:37:02.059Z,7.45
2018-01-25T21:39:30.861Z,12.32
2018-01-25T21:42:00.487Z,8.65
2018-01-25T21:44:29.150Z,7.87
2018-01-25T21:46:57.678Z,7.80
2018-01-25T21:49:26.433Z,8.05
2018-01-25T21:51:54.942Z,12.45
2018-01-25T21:54:25.363Z,8.80
2018-01-25T21:56:56.277Z,7.60
2018-01-25T21:59:24.848Z,7.90
2018-01-25T22:01:53.281Z,8.30
2018-01-25T22:04:21.753Z,8.90
2018-01-25T22:06:50.202Z,10.57
2018-01-25T22:09:18.573Z,9.70
2018-01-25T22:11:46.976Z,11.85
2018-01-25T22:14:15.354Z,10.20
2018-01-25T22:16:43.778Z,7.20
2018-01-25T22:19:14.708Z,7.07
2018-01-25T22:21:44.495Z,7.85
2018-01-25T22:24:13.830Z,7.18
2018-01-25T22:26:42.958Z,8.93
2018-01-25T22:29:11.359Z,8.02
2018-01-25T22:31:40.169Z,8.50
2018-01-25T22:34:09.349Z,7.45
2018-01-25T22:36:37.908Z,21.95
2018-01-25T22:39:06.589Z,7.78
2018-01-25T22:41:35.551Z,8.63
2018-01-25T22:44:04.196Z,6.60
2018-01-25T22:46:32.652Z,9.38
2018-01-25T22:49:01.056Z,10.50
2018-01-25T22:51:29.524Z,8.75
2018-01-25T22:53:57.890Z,8.13
2018-01-25T22:56:26.452Z,13.23
2018-01-25T22:58:54.849Z,11.05
2018-01-25T23:01:23.235Z,12.88
2018-01-25T23:03:51.616Z,10.40
2018-01-25T23:06:20.014Z,11.68
2018-01-25T23:08:48.409Z,12.35
2018-01-25T23:11:16.776Z,21.40
2018-01-25T23:13:45.513Z,22.15
2018-01-25T23:16:13.885Z,12.55
2018-01-25T23:18:42.250Z,14.75
2018-01-25T23:21:11.588Z,15.90
2018-01-25T23:23:39.971Z,15.73
2018-01-25T23:26:08.356Z,12.57
2018-01-25T23:28:36.792Z,11.00
2018-01-25T23:31:05.605Z,13.25
2018-01-25T23:33:33.969Z,10.88
2018-01-25T23:36:02.380Z,12.02
2018-01-25T23:38:36.753Z,9.80
2018-01-25T23:41:06.296Z,11.12
2018-01-25T23:43:35.979Z,10.02
2018-01-25T23:46:04.366Z,11.18
2018-01-25T23:48:33.785Z,10.88
2018-01-25T23:51:02.191Z,10.95
2018-01-25T23:53:30.566Z,10.15
2018-01-25T23:55:59.022Z,11.60
2018-01-25T23:58:27.385Z,10.55
